Time;durP1;ratioP1;P1;durP2;ratioP2;P2;SDS_P1;SDS_P2;PMS_P1;PMS_P2;Temp;Humidity;BMP_temperature;BMP_pressure;BME280_temperature;BME280_humidity;BME280_pressure;Samples;Min_cycle;Max_cycle;Signal;HPM_P1;HPM_P2
2021/04/06 00:01:42;;;;;;;5.63;1.23;;;;;;;;;;5062048;28;20383;-58
2021/04/06 00:04:13;;;;;;;4.30;0.98;;;;;;;;;;5062779;28;20052;-58
2021/04/06 00:06:40;;;;;;;4.15;1.50;;;;;;;;;;5059553;28;20041;-58
2021/04/06 00:09:06;;;;;;;;;;;;;;;;;;5065750;28;20119;-58
2021/04/06 00:11:33;;;;;;;6.40;1.80;;;;;;;;;;5064460;28;19947;-58
2021/04/06 00:14:00;;;;;;;2.92;1.20;;;;;;;;;;5069018;28;20045;-58
2021/04/06 00:16:27;;;;;;;5.20;1.58;;;;;;;;;;5059471;28;20071;-58
2021/04/06 00:18:53;;;;;;;9.23;2.67;;;;;;;;;;5066642;28;20048;-58
2021/04/06 00:21:21;;;;;;;2.90;1.30;;;;;;;;;;5061391;28;20060;-58
2021/04/06 00:23:48;;;;;;;7.18;2.55;;;;;;;;;;5062238;28;20087;-58
2021/04/06 00:26:14;;;;;;;5.78;1.50;;;;;;;;;;5061290;28;20055;-58
2021/04/06 00:28:41;;;;;;;6.88;1.30;;;;;;;;;;5054101;28;20064;-58
2021/04/06 00:31:08;;;;;;;2.95;0.95;;;;;;;;;;5040378;28;20041;-58
2021/04/06 00:33:39;;;;;;;3.75;1.17;;;;;;;;;;5048097;28;20083;-58
2021/04/06 00:36:06;;;;;;;4.32;1.30;;;;;;;;;;5057231;28;20087;-58
2021/04/06 00:38:36;;;;;;;6.03;1.75;;;;;;;;;;5050980;28;20046;-58
2021/04/06 00:41:04;;;;;;;2.42;1.08;;;;;;;;;;5042619;28;20045;-58
2021/04/06 00:43:34;;;;;;;7.55;1.63;;;;;;;;;;5026923;28;20086;-58
2021/04/06 00:46:02;;;;;;;5.82;1.85;;;;;;;;;;5039971;28;20041;-58
2021/04/06 00:48:30;;;;;;;5.53;1.27;;;;;;;;;;5053097;28;20036;-58
2021/04/06 00:50:56;;;;;;;8.55;1.20;;;;;;;;;;5050940;28;20049;-58
2021/04/06 00:53:22;;;;;;;4.38;1.30;;;;;;;;;;5049061;28;20041;-57
2021/04/06 00:55:50;;;;;;;7.15;1.63;;;;;;;;;;5044445;28;20049;-58
2021/04/06 00:58:16;;;;;;;8.82;1.70;;;;;;;;;;5049033;28;20053;-58
2021/04/06 01:00:44;;;;;;;5.43;2.08;;;;;;;;;;5041320;28;20045;-58
2021/04/06 01:03:15;;;;;;;12.57;1.70;;;;;;;;;;5046304;28;20072;-58
2021/04/06 01:06:00;;;;;;;12.23;1.45;;;;;;;;;;5046140;28;20362;-57
2021/04/06 01:08:39;;;;;;;5.55;1.25;;;;;;;;;;5048713;28;20412;-58
2021/04/06 01:11:06;;;;;;;4.63;1.15;;;;;;;;;;5042259;28;20068;-58
2021/04/06 01:13:33;;;;;;;7.72;1.45;;;;;;;;;;5041761;28;20034;-58
2021/04/06 01:16:01;;;;;;;7.97;1.52;;;;;;;;;;5047779;28;20045;-57
2021/04/06 01:18:29;;;;;;;6.15;1.92;;;;;;;;;;5048982;28;20457;-58
2021/04/06 01:20:55;;;;;;;5.63;1.50;;;;;;;;;;5041961;28;20463;-58
2021/04/06 01:23:22;;;;;;;6.70;1.80;;;;;;;;;;5051868;28;20045;-58
2021/04/06 01:25:54;;;;;;;14.48;2.47;;;;;;;;;;5049169;28;20037;-58
2021/04/06 01:28:21;;;;;;;6.70;2.17;;;;;;;;;;5044297;28;20057;-58
2021/04/06 01:30:49;;;;;;;5.35;2.47;;;;;;;;;;5042226;28;20063;-58
2021/04/06 01:33:22;;;;;;;7.28;2.03;;;;;;;;;;5037510;28;20447;-58
2021/04/06 01:35:51;;;;;;;7.50;2.30;;;;;;;;;;5049324;28;20069;-58
2021/04/06 01:38:18;;;;;;;9.77;2.10;;;;;;;;;;5044058;28;20452;-58
2021/04/06 01:40:45;;;;;;;6.72;1.92;;;;;;;;;;5049123;28;20121;-58
2021/04/06 01:43:13;;;;;;;3.85;1.60;;;;;;;;;;5054602;28;20083;-57
2021/04/06 01:45:47;;;;;;;5.50;1.92;;;;;;;;;;5035287;28;20402;-58
2021/04/06 01:48:14;;;;;;;4.93;1.75;;;;;;;;;;5042400;28;20045;-58
2021/04/06 01:50:51;;;;;;;7.20;1.92;;;;;;;;;;5046180;28;20041;-58
2021/04/06 01:53:18;;;;;;;7.10;1.38;;;;;;;;;;5050048;28;20106;-58
2021/04/06 01:55:50;;;;;;;5.75;1.67;;;;;;;;;;5047387;28;20064;-58
2021/04/06 01:58:17;;;;;;;8.13;1.65;;;;;;;;;;5051121;28;20084;-58
2021/04/06 02:03:13;;;;;;;5.22;1.58;;;;;;;;;;5043230;28;20559;-58
2021/04/06 02:05:42;;;;;;;6.45;1.05;;;;;;;;;;5047416;28;20083;-58
2021/04/06 02:08:12;;;;;;;8.70;1.70;;;;;;;;;;5045871;28;20095;-58
2021/04/06 02:10:39;;;;;;;6.60;1.65;;;;;;;;;;5050786;28;20098;-58
2021/04/06 02:13:09;;;;;;;4.63;1.58;;;;;;;;;;5044157;28;20045;-57
2021/04/06 02:15:35;;;;;;;12.15;1.60;;;;;;;;;;5050345;28;20049;-58
2021/04/06 02:18:02;;;;;;;8.50;1.58;;;;;;;;;;5050428;28;20107;-58
2021/04/06 02:20:28;;;;;;;3.92;1.20;;;;;;;;;;5045822;28;20481;-58
2021/04/06 02:22:55;;;;;;;12.70;1.88;;;;;;;;;;5044190;28;20096;-58
2021/04/06 02:25:22;;;;;;;4.90;1.30;;;;;;;;;;5045954;28;20044;-58
2021/04/06 02:27:48;;;;;;;7.80;1.30;;;;;;;;;;5051114;28;20516;-58
2021/04/06 02:30:14;;;;;;;5.57;1.33;;;;;;;;;;5063538;28;20048;-58
2021/04/06 02:32:41;;;;;;;7.57;1.48;;;;;;;;;;5063582;28;20072;-58
2021/04/06 02:35:08;;;;;;;7.30;1.23;;;;;;;;;;5062847;28;20037;-57
2021/04/06 02:37:35;;;;;;;4.75;1.27;;;;;;;;;;5062549;28;20053;-58
2021/04/06 02:40:01;;;;;;;;;;;;;;;;;;5068895;28;20476;-58
2021/04/06 02:42:32;;;;;;;2.97;0.90;;;;;;;;;;5065812;28;19931;-58
2021/04/06 02:45:07;;;;;;;4.05;1.10;;;;;;;;;;5062136;28;20048;-58
2021/04/06 02:47:37;;;;;;;8.63;1.20;;;;;;;;;;5063556;28;20052;-58
2021/04/06 02:50:07;;;;;;;3.67;1.08;;;;;;;;;;5066325;28;20048;-58
2021/04/06 02:52:35;;;;;;;7.53;1.60;;;;;;;;;;5068891;28;20040;-58
2021/04/06 02:55:02;;;;;;;4.90;1.10;;;;;;;;;;5069709;28;20499;-58
2021/04/06 02:57:30;;;;;;;2.83;0.93;;;;;;;;;;5066550;28;20488;-58
2021/04/06 02:59:57;;;;;;;9.07;1.65;;;;;;;;;;5066682;28;20094;-58
2021/04/06 03:02:23;;;;;;;4.90;1.23;;;;;;;;;;5069979;28;20496;-58
2021/04/06 03:04:49;;;;;;;9.65;1.30;;;;;;;;;;5065555;28;20404;-58
2021/04/06 03:07:16;;;;;;;10.82;1.55;;;;;;;;;;5059447;28;20420;-58
2021/04/06 03:09:48;;;;;;;5.07;1.30;;;;;;;;;;5064008;28;20043;-58
2021/04/06 03:12:15;;;;;;;8.77;1.65;;;;;;;;;;5069369;28;20051;-58
2021/04/06 03:14:41;;;;;;;6.07;1.38;;;;;;;;;;5064705;28;20090;-58
2021/04/06 03:17:07;;;;;;;5.55;1.45;;;;;;;;;;5063613;28;20133;-57
2021/04/06 03:19:34;;;;;;;7.38;1.58;;;;;;;;;;5062745;28;20587;-58
2021/04/06 03:22:00;;;;;;;5.47;1.40;;;;;;;;;;5066172;28;20787;-57
2021/04/06 03:24:29;;;;;;;4.10;1.13;;;;;;;;;;5066627;28;20121;-58
2021/04/06 03:27:02;;;;;;;10.57;1.33;;;;;;;;;;5063324;28;20386;-58
2021/04/06 03:29:30;;;;;;;4.88;1.15;;;;;;;;;;5056551;28;20094;-58
2021/04/06 03:31:56;;;;;;;;;;;;;;;;;;5063233;28;20037;-58
2021/04/06 03:34:23;;;;;;;5.47;1.40;;;;;;;;;;5064753;28;19951;-58
2021/04/06 03:36:49;;;;;;;2.67;1.35;;;;;;;;;;5059722;28;20059;-58
2021/04/06 03:39:16;;;;;;;3.45;1.30;;;;;;;;;;5061871;28;20064;-58
2021/04/06 03:41:42;;;;;;;8.90;2.03;;;;;;;;;;5060683;28;20105;-58
2021/04/06 03:44:09;;;;;;;10.18;1.48;;;;;;;;;;5050360;28;20497;-58
2021/04/06 03:46:36;;;;;;;9.13;1.65;;;;;;;;;;5063015;28;20037;-58
2021/04/06 03:49:16;;;;;;;3.50;0.95;;;;;;;;;;5063853;28;20056;-58
2021/04/06 03:51:46;;;;;;;8.45;1.50;;;;;;;;;;5060162;28;20078;-57
2021/04/06 03:54:28;;;;;;;11.07;1.38;;;;;;;;;;5045637;28;20595;-58
2021/04/06 03:56:55;;;;;;;5.72;1.40;;;;;;;;;;5062421;28;20500;-58
2021/04/06 03:59:26;;;;;;;5.75;1.23;;;;;;;;;;5063913;28;20048;-58
2021/04/06 04:01:52;;;;;;;5.13;1.08;;;;;;;;;;5065129;28;20369;-58
2021/04/06 04:04:19;;;;;;;7.18;1.23;;;;;;;;;;5062420;28;20048;-58
2021/04/06 04:06:45;;;;;;;4.93;1.40;;;;;;;;;;5063694;28;20090;-58
2021/04/06 04:09:11;;;;;;;9.80;1.55;;;;;;;;;;5065215;28;20040;-58
2021/04/06 04:11:39;;;;;;;5.10;1.25;;;;;;;;;;5064353;28;20111;-58
2021/04/06 04:14:06;;;;;;;4.32;1.50;;;;;;;;;;5061713;28;20128;-58
2021/04/06 04:16:36;;;;;;;4.75;1.50;;;;;;;;;;5062976;28;20041;-58
2021/04/06 04:19:04;;;;;;;5.30;1.48;;;;;;;;;;5061671;28;20048;-58
2021/04/06 04:21:30;;;;;;;8.43;1.70;;;;;;;;;;5048295;28;20053;-58
2021/04/06 04:23:56;;;;;;;8.73;2.17;;;;;;;;;;5059382;28;20064;-58
2021/04/06 04:26:22;;;;;;;5.68;1.70;;;;;;;;;;5065194;28;20044;-58
2021/04/06 04:28:48;;;;;;;9.70;1.95;;;;;;;;;;5048606;28;20705;-57
2021/04/06 04:31:16;;;;;;;4.32;1.65;;;;;;;;;;5037261;28;20382;-58
2021/04/06 04:33:42;;;;;;;7.55;2.20;;;;;;;;;;5039481;28;20056;-58
2021/04/06 04:36:08;;;;;;;15.15;1.83;;;;;;;;;;5042795;28;20096;-58
2021/04/06 04:38:34;;;;;;;7.28;1.65;;;;;;;;;;5043804;28;20037;-58
2021/04/06 04:41:00;;;;;;;8.77;1.55;;;;;;;;;;5042805;28;20045;-58
2021/04/06 04:43:27;;;;;;;4.97;1.15;;;;;;;;;;5047920;28;20119;-58
2021/04/06 04:45:53;;;;;;;9.57;1.80;;;;;;;;;;5045550;28;20575;-58
2021/04/06 04:48:19;;;;;;;7.55;1.50;;;;;;;;;;5044836;28;20076;-58
2021/04/06 04:50:46;;;;;;;11.30;1.83;;;;;;;;;;5042589;28;20667;-57
2021/04/06 04:53:13;;;;;;;11.88;1.42;;;;;;;;;;5045405;28;20052;-58
2021/04/06 04:55:39;;;;;;;11.98;2.25;;;;;;;;;;5048671;28;20041;-58
2021/04/06 04:58:06;;;;;;;7.88;1.63;;;;;;;;;;5042225;28;20053;-58
2021/04/06 05:00:32;;;;;;;7.68;1.60;;;;;;;;;;5044154;28;20094;-58
2021/04/06 05:02:59;;;;;;;8.13;1.42;;;;;;;;;;5048346;28;20619;-58
2021/04/06 05:05:26;;;;;;;10.70;1.05;;;;;;;;;;5042202;28;20037;-58
2021/04/06 05:07:52;;;;;;;11.95;1.65;;;;;;;;;;5023842;28;20533;-58
2021/04/06 05:10:18;;;;;;;8.40;2.10;;;;;;;;;;5050487;28;20077;-57
2021/04/06 05:12:48;;;;;;;8.43;1.35;;;;;;;;;;5046722;28;20408;-58
2021/04/06 05:15:15;;;;;;;6.18;2.05;;;;;;;;;;5043825;28;20098;-58
2021/04/06 05:17:41;;;;;;;7.28;1.48;;;;;;;;;;5049685;28;20053;-58
2021/04/06 05:20:08;;;;;;;11.98;2.15;;;;;;;;;;5046992;28;20042;-57
2021/04/06 05:22:35;;;;;;;15.73;1.77;;;;;;;;;;5043582;28;20059;-58
2021/04/06 05:25:02;;;;;;;6.13;1.50;;;;;;;;;;5046389;28;20524;-58
2021/04/06 05:27:28;;;;;;;10.90;1.67;;;;;;;;;;5051504;28;20107;-58
2021/04/06 05:29:54;;;;;;;9.30;1.60;;;;;;;;;;5056356;28;20585;-58
2021/04/06 05:32:21;;;;;;;5.28;1.60;;;;;;;;;;5050036;28;20049;-58
2021/04/06 05:34:47;;;;;;;8.77;1.55;;;;;;;;;;5045804;28;20041;-58
2021/04/06 05:37:13;;;;;;;8.98;2.03;;;;;;;;;;5048817;28;20485;-58
2021/04/06 05:39:39;;;;;;;6.35;1.45;;;;;;;;;;5054128;28;20046;-58
2021/04/06 05:42:10;;;;;;;5.65;1.58;;;;;;;;;;5047226;28;20404;-58
2021/04/06 05:44:38;;;;;;;7.50;1.52;;;;;;;;;;5050295;28;20584;-58
2021/04/06 05:47:04;;;;;;;6.20;1.17;;;;;;;;;;5048314;28;20059;-58
2021/04/06 05:49:31;;;;;;;5.43;1.48;;;;;;;;;;5041218;28;20037;-58
2021/04/06 05:51:57;;;;;;;13.82;2.13;;;;;;;;;;5044646;28;20045;-58
2021/04/06 05:54:25;;;;;;;8.10;2.00;;;;;;;;;;5046375;28;20060;-58
2021/04/06 05:56:52;;;;;;;11.50;2.30;;;;;;;;;;5043587;28;20076;-60
2021/04/06 05:59:18;;;;;;;7.50;1.48;;;;;;;;;;5043463;28;20515;-60
2021/04/06 06:01:45;;;;;;;7.80;1.83;;;;;;;;;;5046606;28;20044;-60
2021/04/06 06:04:12;;;;;;;;;;;;;;;;;;5048365;28;20049;-60
2021/04/06 06:06:38;;;;;;;6.00;1.52;;;;;;;;;;5043393;28;20041;-60
2021/04/06 06:09:05;;;;;;;11.88;1.50;;;;;;;;;;5046766;28;20042;-60
2021/04/06 06:11:32;;;;;;;5.35;1.35;;;;;;;;;;5045463;28;20045;-60
2021/04/06 06:13:58;;;;;;;9.10;2.17;;;;;;;;;;5045445;28;20148;-60
2021/04/06 06:16:26;;;;;;;4.70;1.43;;;;;;;;;;5048978;28;20099;-60
2021/04/06 06:18:56;;;;;;;2.95;1.05;;;;;;;;;;5048438;28;20354;-60
2021/04/06 06:21:23;;;;;;;4.43;1.20;;;;;;;;;;5046646;28;20468;-60
2021/04/06 06:23:50;;;;;;;6.15;1.27;;;;;;;;;;5049822;28;20076;-60
2021/04/06 06:26:17;;;;;;;3.63;1.13;;;;;;;;;;5050618;28;20404;-61
2021/04/06 06:29:04;;;;;;;3.17;1.15;;;;;;;;;;5061675;28;20044;-60
2021/04/06 06:31:34;;;;;;;7.90;1.25;;;;;;;;;;5063810;28;20037;-61
2021/04/06 06:34:01;;;;;;;4.70;1.40;;;;;;;;;;5059259;28;20045;-60
2021/04/06 06:36:27;;;;;;;4.47;1.20;;;;;;;;;;5062036;28;20048;-61
2021/04/06 06:39:01;;;;;;;4.25;1.30;;;;;;;;;;5064770;28;20048;-61
2021/04/06 06:41:27;;;;;;;4.90;0.95;;;;;;;;;;5066686;28;20075;-61
2021/04/06 06:43:55;;;;;;;4.38;1.10;;;;;;;;;;5058539;28;20098;-61
2021/04/06 06:46:23;;;;;;;4.10;1.25;;;;;;;;;;5059913;28;20459;-61
2021/04/06 06:48:59;;;;;;;5.07;1.35;;;;;;;;;;5065817;28;20373;-61
2021/04/06 06:51:29;;;;;;;5.93;1.30;;;;;;;;;;5064910;28;20041;-61
2021/04/06 06:53:55;;;;;;;2.55;0.90;;;;;;;;;;5062984;28;20111;-60
2021/04/06 06:56:32;;;;;;;3.55;1.20;;;;;;;;;;5058677;28;20337;-61
2021/04/06 06:58:59;;;;;;;5.47;1.27;;;;;;;;;;5059559;28;20033;-61
2021/04/06 07:01:26;;;;;;;2.65;0.98;;;;;;;;;;5063043;28;20040;-61
2021/04/06 07:04:12;;;;;;;6.18;1.08;;;;;;;;;;5066375;28;20067;-61
2021/04/06 07:06:42;;;;;;;4.55;1.17;;;;;;;;;;5064043;28;20052;-61
2021/04/06 07:09:25;;;;;;;2.45;1.10;;;;;;;;;;5063180;28;20056;-60
2021/04/06 07:11:52;;;;;;;4.32;1.40;;;;;;;;;;5063890;28;20496;-61
2021/04/06 07:14:21;;;;;;;3.22;1.15;;;;;;;;;;5063186;28;20028;-61
2021/04/06 07:16:48;;;;;;;4.55;1.15;;;;;;;;;;5066310;28;20527;-61
2021/04/06 07:19:15;;;;;;;4.22;0.85;;;;;;;;;;5062500;28;20051;-61
2021/04/06 07:21:41;;;;;;;4.45;0.70;;;;;;;;;;5062221;28;20098;-60
2021/04/06 07:24:23;;;;;;;3.70;1.17;;;;;;;;;;5064472;28;20040;-61
2021/04/06 07:26:50;;;;;;;6.45;1.20;;;;;;;;;;5064517;28;20047;-61
2021/04/06 07:29:18;;;;;;;3.70;1.40;;;;;;;;;;5045501;28;20783;-61
2021/04/06 07:31:44;;;;;;;;;;;;;;;;;;5066490;28;20052;-61
2021/04/06 07:34:11;;;;;;;5.30;1.65;;;;;;;;;;5064768;28;20015;-61
2021/04/06 07:36:37;;;;;;;8.20;2.08;;;;;;;;;;5060235;28;20562;-60
2021/04/06 07:39:08;;;;;;;4.13;1.50;;;;;;;;;;5065594;28;20460;-61
2021/04/06 07:41:38;;;;;;;2.83;1.02;;;;;;;;;;5067561;28;20041;-61
2021/04/06 07:44:05;;;;;;;4.80;1.33;;;;;;;;;;5063865;28;20069;-60
2021/04/06 07:46:34;;;;;;;6.32;1.98;;;;;;;;;;5063425;28;20551;-61
2021/04/06 07:49:03;;;;;;;7.00;1.40;;;;;;;;;;5061222;28;20132;-61
2021/04/06 07:51:31;;;;;;;6.25;1.25;;;;;;;;;;5062420;28;20036;-61
2021/04/06 07:53:59;;;;;;;3.58;1.08;;;;;;;;;;5060032;28;20496;-60
2021/04/06 07:56:24;;;;;;;;;;;;;;;;;;5062230;28;20103;-61
2021/04/06 07:58:52;;;;;;;1.23;0.88;;;;;;;;;;5058425;28;19920;-61
2021/04/06 08:01:29;;;;;;;3.47;1.52;;;;;;;;;;5061257;28;20173;-61
2021/04/06 08:04:00;;;;;;;3.70;1.25;;;;;;;;;;5060296;28;20052;-61
2021/04/06 08:06:28;;;;;;;3.45;1.25;;;;;;;;;;5059897;28;20068;-61
2021/04/06 08:08:54;;;;;;;5.60;1.30;;;;;;;;;;5063408;28;20043;-61
2021/04/06 08:11:33;;;;;;;5.93;0.98;;;;;;;;;;5063311;28;20471;-61
2021/04/06 08:14:00;;;;;;;2.33;1.13;;;;;;;;;;5064850;28;20037;-59
2021/04/06 08:16:28;;;;;;;3.40;1.17;;;;;;;;;;5065699;28;20450;-58
2021/04/06 08:18:54;;;;;;;4.90;1.00;;;;;;;;;;5063126;28;20051;-58
2021/04/06 08:21:22;;;;;;;4.50;1.52;;;;;;;;;;5060773;28;20045;-59
2021/04/06 08:23:49;;;;;;;5.55;1.40;;;;;;;;;;5063082;28;20040;-59
2021/04/06 08:26:31;;;;;;;3.10;1.10;;;;;;;;;;5063700;28;20571;-59
2021/04/06 08:29:18;;;;;;;4.30;1.08;;;;;;;;;;5043961;28;20059;-59
2021/04/06 08:31:44;;;;;;;7.80;1.10;;;;;;;;;;5054704;28;20136;-58
2021/04/06 08:34:39;;;;;;;5.23;1.00;;;;;;;;;;5063617;28;20047;-59
2021/04/06 08:37:09;;;;;;;5.00;1.00;;;;;;;;;;5025846;28;20392;-58
2021/04/06 08:39:37;;;;;;;5.60;1.55;;;;;;;;;;5057736;28;20094;-58
2021/04/06 08:42:04;;;;;;;3.97;1.30;;;;;;;;;;5062379;28;20112;-61
2021/04/06 08:44:32;;;;;;;5.40;1.30;;;;;;;;;;5054497;28;20045;-58
2021/04/06 08:46:59;;;;;;;2.60;1.05;;;;;;;;;;5059540;28;20033;-58
2021/04/06 08:49:27;;;;;;;5.60;1.10;;;;;;;;;;5044092;28;20045;-58
2021/04/06 08:51:53;;;;;;;2.88;1.38;;;;;;;;;;5056189;28;20064;-58
2021/04/06 08:54:33;;;;;;;8.27;1.02;;;;;;;;;;5060451;28;20056;-58
2021/04/06 08:57:04;;;;;;;5.60;1.40;;;;;;;;;;5060125;28;20067;-58
2021/04/06 08:59:35;;;;;;;2.33;1.08;;;;;;;;;;5067050;28;20059;-59
2021/04/06 09:02:11;;;;;;;4.75;1.25;;;;;;;;;;5065778;28;20109;-58
2021/04/06 09:04:47;;;;;;;5.28;1.10;;;;;;;;;;5058821;28;20090;-58
2021/04/06 09:07:17;;;;;;;4.60;1.30;;;;;;;;;;5051078;28;20562;-58
2021/04/06 09:09:44;;;;;;;4.72;1.33;;;;;;;;;;5065302;28;20051;-58
2021/04/06 09:12:10;;;;;;;4.70;1.25;;;;;;;;;;5062741;28;20094;-58
2021/04/06 09:14:37;;;;;;;5.25;0.90;;;;;;;;;;5061305;28;20048;-58
2021/04/06 09:17:04;;;;;;;5.32;1.15;;;;;;;;;;5063633;28;20036;-59
2021/04/06 09:19:33;;;;;;;2.50;1.00;;;;;;;;;;5060451;28;20040;-58
2021/04/06 09:21:59;;;;;;;2.97;1.17;;;;;;;;;;5054251;28;20123;-58
2021/04/06 09:24:27;;;;;;;3.72;0.70;;;;;;;;;;5061116;28;20351;-58
2021/04/06 09:26:54;;;;;;;2.85;0.73;;;;;;;;;;5059821;28;20083;-58
2021/04/06 09:29:24;;;;;;;6.40;1.33;;;;;;;;;;5052192;28;20048;-58
2021/04/06 09:31:51;;;;;;;3.35;1.10;;;;;;;;;;5056673;28;20044;-58
2021/04/06 09:34:19;;;;;;;1.90;0.90;;;;;;;;;;5057403;28;20103;-58
2021/04/06 09:36:44;;;;;;;;;;;;;;;;;;5059447;28;20043;-58
2021/04/06 09:39:12;;;;;;;4.18;1.08;;;;;;;;;;5059505;28;20027;-58
2021/04/06 09:41:40;;;;;;;3.92;1.02;;;;;;;;;;5059682;28;20063;-59
2021/04/06 09:44:09;;;;;;;5.13;1.50;;;;;;;;;;5060562;28;20049;-58
2021/04/06 09:46:40;;;;;;;2.50;1.02;;;;;;;;;;5060208;28;20124;-58
2021/04/06 09:49:06;;;;;;;4.78;1.23;;;;;;;;;;5062566;28;20056;-58
2021/04/06 09:51:46;;;;;;;5.05;0.90;;;;;;;;;;5067082;28;20264;-58
2021/04/06 09:54:13;;;;;;;2.88;0.85;;;;;;;;;;5065933;28;20036;-59
2021/04/06 09:56:39;;;;;;;3.75;1.00;;;;;;;;;;5066716;28;20047;-58
2021/04/06 09:59:06;;;;;;;4.22;1.33;;;;;;;;;;5046442;28;20109;-58
2021/04/06 10:01:33;;;;;;;2.20;1.13;;;;;;;;;;5064737;28;20653;-58
2021/04/06 10:04:01;;;;;;;4.22;1.20;;;;;;;;;;5060437;28;20094;-59
2021/04/06 10:06:41;;;;;;;1.38;0.88;;;;;;;;;;5058874;28;20024;-58
2021/04/06 10:09:18;;;;;;;2.97;0.90;;;;;;;;;;5063153;28;20209;-58
2021/04/06 10:11:44;;;;;;;1.65;0.95;;;;;;;;;;5047653;28;20399;-58
2021/04/06 10:14:11;;;;;;;6.88;1.25;;;;;;;;;;5060617;28;20033;-59
2021/04/06 10:16:37;;;;;;;3.30;1.27;;;;;;;;;;5056955;28;20679;-58
2021/04/06 10:19:16;;;;;;;4.05;1.23;;;;;;;;;;5058027;28;20306;-58
2021/04/06 10:21:42;;;;;;;2.65;1.05;;;;;;;;;;5058104;28;20051;-59
2021/04/06 10:24:09;;;;;;;3.50;1.15;;;;;;;;;;5064515;28;20037;-59
2021/04/06 10:26:35;;;;;;;3.17;1.23;;;;;;;;;;5063515;28;20611;-58
2021/04/06 10:29:05;;;;;;;4.05;1.10;;;;;;;;;;5061166;28;20044;-59
2021/04/06 10:31:48;;;;;;;4.88;1.75;;;;;;;;;;5060695;28;20103;-58
2021/04/06 10:34:14;;;;;;;2.92;0.80;;;;;;;;;;5065572;28;20073;-59
2021/04/06 10:36:53;;;;;;;6.28;1.10;;;;;;;;;;5062868;28;20047;-58
2021/04/06 10:39:29;;;;;;;2.50;0.93;;;;;;;;;;5062318;28;20491;-59
2021/04/06 10:41:55;;;;;;;6.07;1.40;;;;;;;;;;5059940;28;20070;-58
2021/04/06 10:44:22;;;;;;;2.45;1.08;;;;;;;;;;5064819;28;20041;-59
2021/04/06 10:46:48;;;;;;;3.78;0.90;;;;;;;;;;5062907;28;20072;-58
2021/04/06 10:49:14;;;;;;;4.00;1.20;;;;;;;;;;5067455;28;20037;-59
2021/04/06 10:51:46;;;;;;;8.02;1.10;;;;;;;;;;5046504;28;20122;-59
2021/04/06 10:54:15;;;;;;;5.55;1.02;;;;;;;;;;5060744;28;20056;-58
2021/04/06 10:56:43;;;;;;;1.92;1.00;;;;;;;;;;5063788;28;20068;-59
2021/04/06 10:59:09;;;;;;;;;;;;;;;;;;5063835;28;20131;-58
2021/04/06 11:01:39;;;;;;;5.60;1.02;;;;;;;;;;5067308;28;20106;-58
2021/04/06 11:04:13;;;;;;;3.38;0.90;;;;;;;;;;5064832;28;20488;-58
2021/04/06 11:06:48;;;;;;;5.25;1.17;;;;;;;;;;5066509;28;20381;-59
2021/04/06 11:09:18;;;;;;;4.63;0.80;;;;;;;;;;5062157;28;20070;-58
2021/04/06 11:11:51;;;;;;;3.10;0.80;;;;;;;;;;5061868;28;20049;-59
2021/04/06 11:14:19;;;;;;;2.88;1.13;;;;;;;;;;5063693;28;20545;-59
2021/04/06 11:16:46;;;;;;;2.17;0.70;;;;;;;;;;5065128;28;20115;-58
2021/04/06 11:19:14;;;;;;;1.17;0.57;;;;;;;;;;5067617;28;20049;-58
2021/04/06 11:21:42;;;;;;;4.22;1.80;;;;;;;;;;5066317;28;20044;-59
2021/04/06 11:24:09;;;;;;;4.25;0.77;;;;;;;;;;5045789;28;20131;-59
2021/04/06 11:26:35;;;;;;;2.00;0.60;;;;;;;;;;5065029;28;20570;-58
2021/04/06 11:29:03;;;;;;;1.90;0.52;;;;;;;;;;5066261;28;20106;-59
2021/04/06 11:31:29;;;;;;;2.88;0.77;;;;;;;;;;5066726;28;20124;-58
2021/04/06 11:33:56;;;;;;;1.83;0.77;;;;;;;;;;5069027;28;20508;-59
2021/04/06 11:36:22;;;;;;;2.70;1.13;;;;;;;;;;5065508;28;20036;-58
2021/04/06 11:38:49;;;;;;;1.00;0.57;;;;;;;;;;5063674;28;20045;-59
2021/04/06 11:41:19;;;;;;;3.00;0.73;;;;;;;;;;5062663;28;20584;-58
2021/04/06 11:43:46;;;;;;;3.63;0.70;;;;;;;;;;5062204;28;20118;-58
2021/04/06 11:46:12;;;;;;;5.70;0.60;;;;;;;;;;5058682;28;20048;-59
2021/04/06 11:48:39;;;;;;;4.60;1.10;;;;;;;;;;5063938;28;20127;-58
2021/04/06 11:51:07;;;;;;;2.53;0.55;;;;;;;;;;5062670;28;20036;-59
2021/04/06 11:53:33;;;;;;;5.30;1.08;;;;;;;;;;5061873;28;20060;-59
2021/04/06 11:56:00;;;;;;;6.10;1.10;;;;;;;;;;5059880;28;20044;-59
2021/04/06 11:58:27;;;;;;;3.75;0.88;;;;;;;;;;5058182;28;20032;-59
2021/04/06 12:00:54;;;;;;;3.40;0.90;;;;;;;;;;5060466;28;20106;-59
2021/04/06 12:03:20;;;;;;;3.08;0.88;;;;;;;;;;5062726;28;20498;-59
2021/04/06 12:05:46;;;;;;;1.60;0.68;;;;;;;;;;5059389;28;20048;-58
2021/04/06 12:08:12;;;;;;;3.30;0.77;;;;;;;;;;5061315;28;20484;-59
2021/04/06 12:10:39;;;;;;;5.45;1.25;;;;;;;;;;5060368;28;20051;-59
2021/04/06 12:13:05;;;;;;;5.07;1.02;;;;;;;;;;5062707;28;20036;-59
2021/04/06 12:15:31;;;;;;;4.22;1.15;;;;;;;;;;5063772;28;20036;-58
2021/04/06 12:17:57;;;;;;;4.57;1.00;;;;;;;;;;5063757;28;20067;-58
2021/04/06 12:20:24;;;;;;;2.75;0.68;;;;;;;;;;5063025;28;20048;-59
2021/04/06 12:22:50;;;;;;;3.10;0.80;;;;;;;;;;5063759;28;20561;-59
2021/04/06 12:25:17;;;;;;;3.53;0.70;;;;;;;;;;5063186;28;20085;-59
2021/04/06 12:27:45;;;;;;;4.72;1.00;;;;;;;;;;5060860;28;20579;-59
2021/04/06 12:30:11;;;;;;;;;;;;;;;;;;5061377;28;20045;-59
2021/04/06 12:32:38;;;;;;;3.92;0.70;;;;;;;;;;5063828;28;19920;-59
2021/04/06 12:35:04;;;;;;;3.90;0.85;;;;;;;;;;5058332;28;20120;-58
2021/04/06 12:37:32;;;;;;;1.60;0.80;;;;;;;;;;5058105;28;20047;-59
2021/04/06 12:40:03;;;;;;;3.30;0.82;;;;;;;;;;5060010;28;20039;-59
2021/04/06 12:42:29;;;;;;;;;;;;;;;;;;5039496;28;20112;-59
2021/04/06 12:44:56;;;;;;;1.75;0.60;;;;;;;;;;5054055;28;20362;-59
2021/04/06 12:47:22;;;;;;;4.85;0.85;;;;;;;;;;5055845;28;20045;-59
2021/04/06 12:49:48;;;;;;;5.03;0.65;;;;;;;;;;5059287;28;20053;-58
2021/04/06 12:52:16;;;;;;;1.67;0.90;;;;;;;;;;5062091;28;20062;-59
2021/04/06 12:54:43;;;;;;;3.17;0.68;;;;;;;;;;5060485;28;20045;-59
2021/04/06 12:57:10;;;;;;;5.68;0.90;;;;;;;;;;5062745;28;20048;-59
2021/04/06 12:59:36;;;;;;;1.42;0.40;;;;;;;;;;5061367;28;20144;-59
2021/04/06 13:02:02;;;;;;;3.47;0.63;;;;;;;;;;5062341;28;20500;-59
2021/04/06 13:04:29;;;;;;;3.30;0.90;;;;;;;;;;5062475;28;20040;-59
2021/04/06 13:06:57;;;;;;;2.63;0.70;;;;;;;;;;5060996;28;20071;-59
2021/04/06 13:09:24;;;;;;;1.30;0.60;;;;;;;;;;5064420;28;20515;-59
2021/04/06 13:11:50;;;;;;;4.03;1.33;;;;;;;;;;5059982;28;20040;-59
2021/04/06 13:14:17;;;;;;;2.65;0.45;;;;;;;;;;5059908;28;20040;-59
2021/04/06 13:16:43;;;;;;;1.38;0.60;;;;;;;;;;5059893;28;20052;-58
2021/04/06 13:19:09;;;;;;;2.03;0.80;;;;;;;;;;5064000;28;20048;-59
2021/04/06 13:21:37;;;;;;;2.42;0.65;;;;;;;;;;5060307;28;20041;-59
2021/04/06 13:24:03;;;;;;;4.50;0.80;;;;;;;;;;5063077;28;20049;-59
2021/04/06 13:26:29;;;;;;;5.18;1.00;;;;;;;;;;5065271;28;20044;-59
2021/04/06 13:28:55;;;;;;;5.47;0.68;;;;;;;;;;5062416;28;20060;-59
2021/04/06 13:31:22;;;;;;;1.73;0.70;;;;;;;;;;5061043;28;20090;-59
2021/04/06 13:33:48;;;;;;;2.13;0.70;;;;;;;;;;5066441;28;20135;-58
2021/04/06 13:36:15;;;;;;;3.25;0.77;;;;;;;;;;5062542;28;20074;-59
2021/04/06 13:38:41;;;;;;;4.10;0.88;;;;;;;;;;5062086;28;20064;-59
2021/04/06 13:41:09;;;;;;;1.52;0.50;;;;;;;;;;5050957;28;20056;-59
2021/04/06 13:43:36;;;;;;;4.97;0.80;;;;;;;;;;5064173;28;20061;-59
2021/04/06 13:46:02;;;;;;;2.95;0.88;;;;;;;;;;5061434;28;20029;-59
2021/04/06 13:48:28;;;;;;;3.53;0.85;;;;;;;;;;5063985;28;20086;-59
2021/04/06 13:50:56;;;;;;;2.47;0.90;;;;;;;;;;5060927;28;20043;-59
2021/04/06 13:53:23;;;;;;;2.72;0.77;;;;;;;;;;5063317;28;20049;-59
2021/04/06 13:55:49;;;;;;;4.40;0.77;;;;;;;;;;5059556;28;20049;-59
2021/04/06 13:58:16;;;;;;;2.83;0.95;;;;;;;;;;5066174;28;20448;-59
2021/04/06 14:00:43;;;;;;;1.45;0.47;;;;;;;;;;5066067;28;20045;-59
2021/04/06 14:03:09;;;;;;;;;;;;;;;;;;5063642;28;20056;-58
2021/04/06 14:05:36;;;;;;;3.53;0.70;;;;;;;;;;5060998;28;19959;-59
2021/04/06 14:08:03;;;;;;;4.82;0.90;;;;;;;;;;5067823;28;20037;-59
2021/04/06 14:10:30;;;;;;;4.53;0.90;;;;;;;;;;5065398;28;20044;-59
2021/04/06 14:12:56;;;;;;;2.08;0.90;;;;;;;;;;5067730;28;20045;-59
2021/04/06 14:15:22;;;;;;;2.30;0.98;;;;;;;;;;5065994;28;20106;-59
2021/04/06 14:17:49;;;;;;;2.35;0.93;;;;;;;;;;5067761;28;20036;-59
2021/04/06 14:20:17;;;;;;;2.07;1.00;;;;;;;;;;5069000;28;20542;-58
2021/04/06 14:22:43;;;;;;;2.58;0.68;;;;;;;;;;5067994;28;20337;-59
2021/04/06 14:25:11;;;;;;;3.10;1.48;;;;;;;;;;5067041;28;20040;-59
2021/04/06 14:27:40;;;;;;;4.28;1.13;;;;;;;;;;5068494;28;20056;-59
2021/04/06 14:30:08;;;;;;;2.35;0.63;;;;;;;;;;5064066;28;20045;-59
2021/04/06 14:32:34;;;;;;;2.00;0.60;;;;;;;;;;5062470;28;20044;-58
2021/04/06 14:35:01;;;;;;;5.50;0.90;;;;;;;;;;5066906;28;20103;-58
2021/04/06 14:37:27;;;;;;;2.13;1.00;;;;;;;;;;5064305;28;20123;-58
2021/04/06 14:39:53;;;;;;;2.33;1.02;;;;;;;;;;5059803;28;20575;-59
2021/04/06 14:42:19;;;;;;;3.67;1.00;;;;;;;;;;5045301;28;20558;-59
2021/04/06 14:44:45;;;;;;;1.38;0.68;;;;;;;;;;5060455;28;20048;-59
2021/04/06 14:47:11;;;;;;;2.90;0.70;;;;;;;;;;5066100;28;20124;-59
2021/04/06 14:49:37;;;;;;;2.80;0.80;;;;;;;;;;5061290;28;20034;-59
2021/04/06 14:52:04;;;;;;;1.52;0.75;;;;;;;;;;5063595;28;20552;-59
2021/04/06 14:54:33;;;;;;;3.40;1.57;;;;;;;;;;5066663;28;20036;-59